YQI weather

Yarmouth Airport
Yarmouth, Nova Scotia, Canada

Public forecast

Using degrees Celsius for public forecast. Weather courtesy of forecast.io.

Current aviation weather report (METAR) for Yarmouth Airport

Retrieved 2020/08/04 14:00 UTC (16 minutes ago):

CYQI 041400Z 32005KT 15SM BKN230 BKN250 22/18 A3012 RMK CS5CI2 SLP202 DENSITY ALT 800FT

Aviation forecast (TAF) for Yarmouth Airport

Retrieved 2020/08/04 12:39 UTC (2 hours ago):

TAF CYQI 041138Z 0412/0424 29006KT P6SM BKN250 BECMG 0420/0422 15010KT SCT008 RMK NXT FCST BY 041800Z